Time;durP1;ratioP1;P1;durP2;ratioP2;P2;SDS_P1;SDS_P2;PMS_P1;PMS_P2;Temp;Humidity;BMP_temperature;BMP_pressure;BME280_temperature;BME280_humidity;BME280_pressure;Samples;Min_cycle;Max_cycle;Signal;HPM_P1;HPM_P2
2022/07/01 00:02:03;;;;;;;4.07;3.42;;;;;;;;;;12628888;28;20039;-83
2022/07/01 00:08:05;;;;;;;5.32;4.13;;;;;;;;;;12647466;28;20036;-82
2022/07/01 00:14:06;;;;;;;3.55;3.25;;;;;;;;;;12628722;28;20055;-82
2022/07/01 00:20:09;;;;;;;6.05;4.18;;;;;;;;;;12629620;28;20032;-83
2022/07/01 00:26:10;;;;;;;6.07;3.92;;;;;;;;;;12647157;28;20396;-83
2022/07/01 00:32:13;;;;;;;4.18;3.70;;;;;;;;;;12646444;28;20043;-83
2022/07/01 00:38:15;;;;;;;5.25;3.70;;;;;;;;;;12627761;28;20511;-83
2022/07/01 00:44:20;;;;;;;4.72;3.30;;;;;;;;;;12646260;28;20039;-83
2022/07/01 00:50:22;;;;;;;4.13;3.63;;;;;;;;;;12629253;28;20040;-78
2022/07/01 00:56:23;;;;;;;5.22;3.90;;;;;;;;;;12628141;28;20028;-83
2022/07/01 01:02:25;;;;;;;6.18;3.42;;;;;;;;;;12637942;28;20028;-83
2022/07/01 01:08:27;;;;;;;4.22;3.80;;;;;;;;;;12678916;28;20028;-83
2022/07/01 01:14:29;;;;;;;6.22;3.85;;;;;;;;;;12659227;28;20048;-83
2022/07/01 01:20:33;;;;;;;6.68;3.88;;;;;;;;;;12675900;28;20031;-83
2022/07/01 01:26:34;;;;;;;4.57;3.92;;;;;;;;;;12636140;28;20032;-79
2022/07/01 01:32:36;;;;;;;4.85;4.03;;;;;;;;;;12626646;28;20047;-83
2022/07/01 01:38:38;;;;;;;5.07;3.90;;;;;;;;;;12643400;28;20084;-79
2022/07/01 01:44:40;;;;;;;6.35;4.47;;;;;;;;;;12643567;28;20380;-79
2022/07/01 01:50:42;;;;;;;4.03;3.60;;;;;;;;;;12643360;28;20484;-78
2022/07/01 01:56:44;;;;;;;3.78;3.33;;;;;;;;;;12609412;28;20361;-82
2022/07/01 02:02:45;;;;;;;5.20;4.15;;;;;;;;;;12643722;28;20036;-83
2022/07/01 02:08:48;;;;;;;5.13;4.38;;;;;;;;;;12609722;28;20039;-82
2022/07/01 02:14:50;;;;;;;4.20;3.65;;;;;;;;;;12642896;28;20048;-82
2022/07/01 02:20:52;;;;;;;5.07;4.32;;;;;;;;;;12627231;28;20369;-78
2022/07/01 02:26:54;;;;;;;5.38;4.20;;;;;;;;;;12652171;28;20032;-82
2022/07/01 02:32:56;;;;;;;5.95;4.55;;;;;;;;;;12633601;28;20051;-81
2022/07/01 02:38:57;;;;;;;4.10;3.28;;;;;;;;;;12633390;28;20051;-82
2022/07/01 02:44:59;;;;;;;4.82;4.32;;;;;;;;;;12651535;28;20051;-81
2022/07/01 02:51:01;;;;;;;5.60;4.45;;;;;;;;;;12650600;28;20036;-82
2022/07/01 02:57:03;;;;;;;5.60;4.28;;;;;;;;;;12652325;28;20032;-82
2022/07/01 03:03:04;;;;;;;7.32;4.75;;;;;;;;;;12615612;28;20039;-78
2022/07/01 03:09:06;;;;;;;5.45;4.57;;;;;;;;;;12632667;28;20483;-79
2022/07/01 03:15:09;;;;;;;5.05;4.55;;;;;;;;;;12649231;28;20032;-79
2022/07/01 03:21:10;;;;;;;6.10;5.50;;;;;;;;;;12649176;28;20039;-79
2022/07/01 03:27:12;;;;;;;6.53;5.20;;;;;;;;;;12649438;28;20032;-79
2022/07/01 03:33:14;;;;;;;6.60;4.75;;;;;;;;;;12612673;28;20040;-79
2022/07/01 03:39:15;;;;;;;7.32;5.15;;;;;;;;;;12649048;28;20562;-79
2022/07/01 03:45:17;;;;;;;4.07;3.65;;;;;;;;;;12630881;28;20036;-79
2022/07/01 03:51:19;;;;;;;4.30;3.95;;;;;;;;;;12629984;28;20040;-79
2022/07/01 03:57:21;;;;;;;;;;;;;;;;;;12629991;28;20024;-79
2022/07/01 04:03:22;;;;;;;;;;;;;;;;;;12647870;28;19908;-79
2022/07/01 04:09:24;;;;;;;5.93;5.33;;;;;;;;;;12629705;28;20386;-79
2022/07/01 04:15:26;;;;;;;5.13;4.30;;;;;;;;;;12628491;28;20285;-79
2022/07/01 04:27:48;;;;;;;8.30;5.72;;;;;;;;;;12646143;28;20386;-79
2022/07/01 04:33:49;;;;;;;;;;;;;;;;;;12646540;28;20044;-83
2022/07/01 04:39:51;;;;;;;6.30;5.70;;;;;;;;;;12645886;28;19939;-82
2022/07/01 04:45:53;;;;;;;6.68;5.03;;;;;;;;;;12609694;28;20290;-81
2022/07/01 04:51:54;;;;;;;;;;;;;;;;;;12627313;28;20039;-81
2022/07/01 04:57:56;;;;;;;5.40;4.90;;;;;;;;;;12644844;28;19908;-82
2022/07/01 05:03:58;;;;;;;5.82;5.07;;;;;;;;;;12627293;28;20043;-78
2022/07/01 05:10:00;;;;;;;5.40;4.90;;;;;;;;;;12626508;28;20040;-79
2022/07/01 05:16:02;;;;;;;8.93;5.13;;;;;;;;;;12644767;28;20043;-78
2022/07/01 05:22:04;;;;;;;6.10;5.32;;;;;;;;;;12609437;28;20047;-79
2022/07/01 05:28:06;;;;;;;6.13;5.30;;;;;;;;;;12625598;28;20047;-78
2022/07/01 05:34:08;;;;;;;5.57;4.40;;;;;;;;;;12608846;28;20396;-78
2022/07/01 05:40:10;;;;;;;7.05;5.53;;;;;;;;;;12625515;28;20554;-78
2022/07/01 05:46:12;;;;;;;4.63;3.78;;;;;;;;;;12643710;28;20044;-78
2022/07/01 05:52:14;;;;;;;5.55;4.82;;;;;;;;;;12608812;28;20153;-78
2022/07/01 05:58:15;;;;;;;5.72;5.15;;;;;;;;;;12615651;28;20066;-78
2022/07/01 06:04:17;;;;;;;6.45;3.70;;;;;;;;;;12652774;28;20036;-79
2022/07/01 06:10:19;;;;;;;5.40;4.00;;;;;;;;;;12633991;28;20040;-78
2022/07/01 06:16:21;;;;;;;4.07;3.50;;;;;;;;;;12634748;28;20036;-78
2022/07/01 06:22:23;;;;;;;5.38;4.32;;;;;;;;;;12651504;28;20036;-78
2022/07/01 06:28:29;;;;;;;4.00;3.50;;;;;;;;;;12651693;28;20028;-78
2022/07/01 06:34:31;;;;;;;4.63;3.20;;;;;;;;;;12651284;28;20121;-78
2022/07/01 06:40:32;;;;;;;4.10;3.45;;;;;;;;;;12651249;28;20052;-78
2022/07/01 06:46:34;;;;;;;5.38;3.33;;;;;;;;;;12616229;28;20515;-78
2022/07/01 06:52:36;;;;;;;3.47;2.63;;;;;;;;;;12633555;28;20067;-78
2022/07/01 06:58:38;;;;;;;2.72;2.10;;;;;;;;;;12634647;28;20024;-82
2022/07/01 07:04:39;;;;;;;4.85;2.65;;;;;;;;;;12615545;28;20036;-83
2022/07/01 07:10:41;;;;;;;3.45;2.10;;;;;;;;;;12632277;28;20052;-83
2022/07/01 07:16:43;;;;;;;1.83;1.17;;;;;;;;;;12631761;28;20377;-83
2022/07/01 07:22:45;;;;;;;2.22;1.20;;;;;;;;;;12649278;28;20040;-82
2022/07/01 07:28:47;;;;;;;2.42;1.20;;;;;;;;;;12648952;28;20472;-82
2022/07/01 07:34:49;;;;;;;2.78;1.70;;;;;;;;;;12648320;28;20048;-78
2022/07/01 07:40:50;;;;;;;3.67;1.35;;;;;;;;;;12648531;28;20059;-78
2022/07/01 07:46:52;;;;;;;3.67;1.60;;;;;;;;;;12647732;28;20044;-79
2022/07/01 07:52:54;;;;;;;4.18;2.28;;;;;;;;;;12647711;28;20044;-80
2022/07/01 07:58:56;;;;;;;4.60;1.58;;;;;;;;;;12648211;28;20028;-78
2022/07/01 08:04:58;;;;;;;2.05;1.27;;;;;;;;;;12629804;28;20024;-78
2022/07/01 08:11:00;;;;;;;1.83;1.30;;;;;;;;;;12629509;28;20588;-77
2022/07/01 08:17:01;;;;;;;1.75;0.98;;;;;;;;;;12646414;28;20036;-77
2022/07/01 08:23:03;;;;;;;2.47;1.20;;;;;;;;;;12627544;28;20039;-78
2022/07/01 08:29:05;;;;;;;3.53;1.40;;;;;;;;;;12628111;28;20035;-82
2022/07/01 08:35:07;;;;;;;2.15;1.58;;;;;;;;;;12647335;28;20040;-83
2022/07/01 08:41:09;;;;;;;3.90;1.50;;;;;;;;;;12627850;28;20062;-83
2022/07/01 08:47:13;;;;;;;3.58;1.60;;;;;;;;;;12611272;28;20044;-82
2022/07/01 08:53:14;;;;;;;4.18;1.65;;;;;;;;;;12610016;28;20040;-82
2022/07/01 08:59:23;;;;;;;4.55;2.08;;;;;;;;;;12610063;28;20388;-81
2022/07/01 09:05:26;;;;;;;4.30;1.92;;;;;;;;;;12609740;28;20032;-78
2022/07/01 09:11:28;;;;;;;2.63;1.88;;;;;;;;;;12627485;28;20048;-78
2022/07/01 09:17:29;;;;;;;3.38;1.63;;;;;;;;;;12626123;28;20039;-78
2022/07/01 09:23:32;;;;;;;5.45;1.88;;;;;;;;;;12644233;28;20036;-78
2022/07/01 09:29:35;;;;;;;2.05;1.45;;;;;;;;;;12646279;28;20036;-78
2022/07/01 09:35:37;;;;;;;5.57;1.80;;;;;;;;;;12654159;28;20051;-82
2022/07/01 09:41:40;;;;;;;3.83;1.70;;;;;;;;;;12619983;28;20411;-82
2022/07/01 09:47:45;;;;;;;3.75;1.90;;;;;;;;;;12619215;28;20047;-83
2022/07/01 09:53:47;;;;;;;4.43;1.45;;;;;;;;;;12636939;28;20048;-79
2022/07/01 09:59:49;;;;;;;5.13;1.50;;;;;;;;;;12635646;28;20594;-79
2022/07/01 10:05:54;;;;;;;3.80;1.70;;;;;;;;;;12653122;28;20035;-78
2022/07/01 10:12:02;;;;;;;4.25;1.80;;;;;;;;;;12652686;28;20051;-78
2022/07/01 10:18:04;;;;;;;3.72;1.52;;;;;;;;;;12652257;28;20046;-82
2022/07/01 10:24:17;;;;;;;3.13;1.20;;;;;;;;;;12633637;28;20496;-81
2022/07/01 10:30:19;;;;;;;3.75;1.58;;;;;;;;;;12616720;28;20047;-82
2022/07/01 10:36:20;;;;;;;4.10;1.67;;;;;;;;;;12633745;28;20047;-82
2022/07/01 10:42:27;;;;;;;2.58;1.27;;;;;;;;;;12633172;28;20059;-82
2022/07/01 10:48:31;;;;;;;2.70;1.40;;;;;;;;;;12633236;28;20032;-82
2022/07/01 10:54:39;;;;;;;2.92;1.52;;;;;;;;;;12650687;28;20051;-82
2022/07/01 11:00:41;;;;;;;2.05;1.17;;;;;;;;;;12632435;28;20051;-82
2022/07/01 11:06:44;;;;;;;5.55;2.08;;;;;;;;;;12632513;28;20035;-82
2022/07/01 11:12:48;;;;;;;3.83;1.52;;;;;;;;;;12631542;28;20052;-82
2022/07/01 11:18:50;;;;;;;5.78;2.30;;;;;;;;;;12631262;28;20381;-82
2022/07/01 11:24:53;;;;;;;6.45;2.00;;;;;;;;;;12614211;28;20055;-82
2022/07/01 11:31:01;;;;;;;5.05;1.70;;;;;;;;;;12648492;28;20043;-82
2022/07/01 11:43:35;;;;;;;5.32;1.85;;;;;;;;;;12602412;28;20044;-78
2022/07/01 11:49:45;;;;;;;4.68;2.10;;;;;;;;;;12648464;28;20393;-78
2022/07/01 11:55:47;;;;;;;2.37;1.40;;;;;;;;;;12629932;28;20044;-78
2022/07/01 12:01:53;;;;;;;5.15;2.00;;;;;;;;;;12629169;28;20032;-78
2022/07/01 12:07:55;;;;;;;5.00;2.00;;;;;;;;;;12629068;28;20047;-78
2022/07/01 12:13:57;;;;;;;6.45;2.00;;;;;;;;;;12628223;28;20036;-78
2022/07/01 12:19:59;;;;;;;5.63;2.20;;;;;;;;;;12646376;28;20043;-78
2022/07/01 12:26:04;;;;;;;6.47;2.25;;;;;;;;;;12646182;28;20146;-78
2022/07/01 12:32:07;;;;;;;3.75;2.15;;;;;;;;;;12627590;28;20047;-78
2022/07/01 12:38:15;;;;;;;5.28;2.28;;;;;;;;;;12627250;28;20515;-78
2022/07/01 12:44:24;;;;;;;4.40;1.90;;;;;;;;;;12644969;28;20106;-78
2022/07/01 12:50:27;;;;;;;3.72;2.13;;;;;;;;;;12627978;28;20043;-78
2022/07/01 12:56:29;;;;;;;5.57;2.08;;;;;;;;;;12610824;28;20036;-78
2022/07/01 13:02:31;;;;;;;5.68;2.10;;;;;;;;;;12626382;28;20044;-78
2022/07/01 13:08:33;;;;;;;3.70;1.70;;;;;;;;;;12626694;28;20036;-78
2022/07/01 13:14:35;;;;;;;4.45;2.10;;;;;;;;;;12626150;28;20052;-78
2022/07/01 13:20:39;;;;;;;5.18;2.53;;;;;;;;;;12644877;28;20050;-78
2022/07/01 13:26:41;;;;;;;5.00;2.00;;;;;;;;;;12643513;28;20051;-78
2022/07/01 13:32:42;;;;;;;7.28;2.40;;;;;;;;;;12643559;28;20044;-82
2022/07/01 13:38:44;;;;;;;7.20;2.47;;;;;;;;;;12643952;28;20040;-82
2022/07/01 13:44:46;;;;;;;5.82;2.65;;;;;;;;;;12643989;28;20040;-82
2022/07/01 13:50:48;;;;;;;4.65;2.05;;;;;;;;;;12624854;28;20056;-78
2022/07/01 13:56:49;;;;;;;6.68;2.25;;;;;;;;;;12643252;28;20036;-78
2022/07/01 14:02:51;;;;;;;5.97;2.00;;;;;;;;;;12624812;28;20377;-78
2022/07/01 14:08:53;;;;;;;3.58;1.70;;;;;;;;;;12643459;28;20028;-78
2022/07/01 14:14:58;;;;;;;4.45;2.30;;;;;;;;;;12642830;28;20054;-78
2022/07/01 14:21:04;;;;;;;6.18;2.30;;;;;;;;;;12651298;28;20032;-78
2022/07/01 14:27:06;;;;;;;6.28;2.67;;;;;;;;;;12651894;28;20509;-78
2022/07/01 14:33:08;;;;;;;3.65;1.58;;;;;;;;;;12651745;28;20404;-78
2022/07/01 14:39:09;;;;;;;6.25;2.63;;;;;;;;;;12652266;28;20043;-82
2022/07/01 14:45:13;;;;;;;7.80;2.95;;;;;;;;;;12633032;28;20488;-82
2022/07/01 14:51:15;;;;;;;10.02;3.50;;;;;;;;;;12632212;28;20380;-81
2022/07/01 14:57:17;;;;;;;6.60;2.72;;;;;;;;;;12650587;28;20035;-78
2022/07/01 15:03:19;;;;;;;4.50;2.70;;;;;;;;;;12650917;28;20151;-81
2022/07/01 15:09:22;;;;;;;5.28;2.67;;;;;;;;;;12616627;28;20028;-81
2022/07/01 15:15:23;;;;;;;11.18;7.38;;;;;;;;;;12631984;28;20059;-82
2022/07/01 15:21:25;;;;;;;6.10;3.20;;;;;;;;;;12649245;28;20036;-82
2022/07/01 15:27:27;;;;;;;7.50;3.95;;;;;;;;;;12630931;28;20036;-82
2022/07/01 15:33:29;;;;;;;6.55;3.75;;;;;;;;;;12648668;28;20040;-78
2022/07/01 15:39:30;;;;;;;5.63;2.67;;;;;;;;;;12648575;28;20056;-78
2022/07/01 15:45:33;;;;;;;5.03;2.75;;;;;;;;;;12630336;28;20044;-78
2022/07/01 15:51:36;;;;;;;3.78;1.90;;;;;;;;;;12647756;28;20047;-79
2022/07/01 15:57:37;;;;;;;3.38;2.10;;;;;;;;;;12630162;28;20032;-79
2022/07/01 16:03:44;;;;;;;3.92;1.95;;;;;;;;;;12629818;28;20032;-79
2022/07/01 16:09:46;;;;;;;3.75;2.03;;;;;;;;;;12629867;28;20047;-78
2022/07/01 16:15:49;;;;;;;4.70;2.28;;;;;;;;;;12628564;28;20063;-79
2022/07/01 16:21:52;;;;;;;3.38;1.98;;;;;;;;;;12628154;28;20039;-78
2022/07/01 16:27:55;;;;;;;4.63;2.05;;;;;;;;;;12646418;28;20032;-78
2022/07/01 16:33:56;;;;;;;2.92;1.70;;;;;;;;;;12611794;28;20492;-79
2022/07/01 16:40:02;;;;;;;4.03;1.70;;;;;;;;;;12645281;28;20040;-82
2022/07/01 16:46:06;;;;;;;2.95;1.73;;;;;;;;;;12627305;28;20040;-83
2022/07/01 16:52:12;;;;;;;3.47;1.90;;;;;;;;;;12627305;28;20498;-79
2022/07/01 16:58:21;;;;;;;2.75;1.45;;;;;;;;;;12646208;28;20043;-79
2022/07/01 17:04:26;;;;;;;2.45;1.50;;;;;;;;;;12644903;28;20495;-79
2022/07/01 17:10:29;;;;;;;2.67;1.38;;;;;;;;;;12645424;28;20039;-79
2022/07/01 17:16:32;;;;;;;2.65;1.50;;;;;;;;;;12644097;28;20055;-79
2022/07/01 17:22:52;;;;;;;2.28;1.38;;;;;;;;;;12644042;28;20032;-79
2022/07/01 17:28:53;;;;;;;;;;;;;;;;;;12644137;28;20036;-79
2022/07/01 17:34:55;;;;;;;3.47;1.50;;;;;;;;;;12625493;28;19916;-79
2022/07/01 17:41:00;;;;;;;3.20;1.50;;;;;;;;;;12625330;28;20051;-79
2022/07/01 17:47:03;;;;;;;3.22;1.35;;;;;;;;;;12625487;28;20063;-83
2022/07/01 17:53:05;;;;;;;1.77;1.13;;;;;;;;;;12648132;28;20040;-79
2022/07/01 17:59:07;;;;;;;2.22;1.30;;;;;;;;;;12653262;28;20054;-83
2022/07/01 18:05:08;;;;;;;3.20;1.55;;;;;;;;;;12654165;28;20024;-83
2022/07/01 18:11:17;;;;;;;2.20;1.50;;;;;;;;;;12635426;28;20040;-83
2022/07/01 18:17:21;;;;;;;3.65;1.83;;;;;;;;;;12652371;28;20067;-83
2022/07/01 18:23:26;;;;;;;2.78;1.63;;;;;;;;;;12652409;28;20476;-82
2022/07/01 18:29:28;;;;;;;4.05;1.75;;;;;;;;;;12617288;28;20031;-83
2022/07/01 18:35:32;;;;;;;5.50;2.75;;;;;;;;;;12651470;28;20047;-83
2022/07/01 18:41:33;;;;;;;3.22;1.88;;;;;;;;;;12652253;28;20496;-83
2022/07/01 18:47:36;;;;;;;3.63;1.50;;;;;;;;;;12616404;28;20036;-79
2022/07/01 18:53:38;;;;;;;3.72;1.98;;;;;;;;;;12632667;28;20487;-83
2022/07/01 18:59:39;;;;;;;3.45;1.70;;;;;;;;;;12651095;28;20059;-84
2022/07/01 19:05:41;;;;;;;2.78;1.60;;;;;;;;;;12649715;28;20039;-79
2022/07/01 19:11:43;;;;;;;4.72;2.25;;;;;;;;;;12650262;28;20407;-79
2022/07/01 19:17:45;;;;;;;2.30;1.70;;;;;;;;;;12632095;28;20028;-79
2022/07/01 19:23:47;;;;;;;4.40;1.98;;;;;;;;;;12632251;28;20043;-79
2022/07/01 19:29:49;;;;;;;3.33;1.90;;;;;;;;;;12615112;28;20039;-79
2022/07/01 19:35:51;;;;;;;3.92;1.63;;;;;;;;;;12630983;28;20051;-79
2022/07/01 19:41:53;;;;;;;2.78;1.65;;;;;;;;;;12632021;28;20070;-79
2022/07/01 19:47:54;;;;;;;3.38;1.67;;;;;;;;;;12648454;28;20036;-79
2022/07/01 19:53:57;;;;;;;2.83;1.60;;;;;;;;;;12629874;28;20051;-79
2022/07/01 19:59:58;;;;;;;3.70;1.70;;;;;;;;;;12629977;28;20395;-79
2022/07/01 20:06:00;;;;;;;3.97;1.70;;;;;;;;;;12648017;28;20039;-79
2022/07/01 20:12:02;;;;;;;1.85;1.20;;;;;;;;;;12629015;28;20052;-79
2022/07/01 20:18:04;;;;;;;3.80;1.30;;;;;;;;;;12610877;28;20043;-78
2022/07/01 20:24:06;;;;;;;2.00;1.42;;;;;;;;;;12628710;28;20043;-79
2022/07/01 20:30:08;;;;;;;4.72;1.88;;;;;;;;;;12627969;28;20043;-79
2022/07/01 20:36:10;;;;;;;2.60;1.40;;;;;;;;;;12646051;28;20036;-79
2022/07/01 20:42:12;;;;;;;1.83;1.55;;;;;;;;;;12647049;28;20056;-79
2022/07/01 20:48:14;;;;;;;2.33;1.40;;;;;;;;;;12627417;28;20032;-79
2022/07/01 20:54:15;;;;;;;2.25;1.20;;;;;;;;;;12610983;28;20051;-79
2022/07/01 21:00:21;;;;;;;1.88;1.25;;;;;;;;;;12626936;28;20028;-79
2022/07/01 21:06:23;;;;;;;2.63;1.40;;;;;;;;;;12644915;28;20086;-83
2022/07/01 21:12:25;;;;;;;2.03;1.17;;;;;;;;;;12610121;28;20499;-83
2022/07/01 21:18:27;;;;;;;1.85;1.08;;;;;;;;;;12612129;28;20476;-83
2022/07/01 21:24:29;;;;;;;2.80;1.45;;;;;;;;;;12626692;28;20032;-84
2022/07/01 21:30:37;;;;;;;3.10;1.00;;;;;;;;;;12626886;28;20500;-83
2022/07/01 21:36:39;;;;;;;5.35;1.27;;;;;;;;;;12626081;28;20067;-79
2022/07/01 21:42:41;;;;;;;1.75;1.50;;;;;;;;;;12625689;28;20051;-82
2022/07/01 21:48:44;;;;;;;3.03;1.35;;;;;;;;;;12626234;28;20036;-83
2022/07/01 21:54:45;;;;;;;1.92;1.20;;;;;;;;;;12625935;28;20044;-83
2022/07/01 22:00:48;;;;;;;1.45;0.95;;;;;;;;;;12625304;28;20028;-83
2022/07/01 22:06:59;;;;;;;2.10;1.25;;;;;;;;;;12643639;28;20036;-83
2022/07/01 22:13:01;;;;;;;1.38;0.75;;;;;;;;;;12625376;28;20048;-83
2022/07/01 22:19:05;;;;;;;4.15;1.55;;;;;;;;;;12679968;28;20046;-82
2022/07/01 22:25:07;;;;;;;0.80;0.80;;;;;;;;;;12610761;28;20036;-83
2022/07/01 22:31:11;;;;;;;1.30;1.17;;;;;;;;;;12625583;28;20035;-83
2022/07/01 22:37:13;;;;;;;1.10;1.00;;;;;;;;;;12642726;28;20044;-83
2022/07/01 22:43:15;;;;;;;4.45;1.25;;;;;;;;;;12650883;28;20058;-79
2022/07/01 22:49:17;;;;;;;1.33;0.95;;;;;;;;;;12653035;28;20056;-79
2022/07/01 22:55:26;;;;;;;1.10;0.70;;;;;;;;;;12651915;28;20514;-78
2022/07/01 23:01:32;;;;;;;1.90;0.70;;;;;;;;;;12651699;28;20036;-78
2022/07/01 23:07:58;;;;;;;1.95;0.80;;;;;;;;;;12616643;28;20395;-78
2022/07/01 23:20:35;;;;;;;1.98;0.85;;;;;;;;;;12632158;28;20028;-78
2022/07/01 23:26:37;;;;;;;1.15;0.98;;;;;;;;;;12632212;28;20024;-81
2022/07/01 23:32:40;;;;;;;1.30;0.90;;;;;;;;;;12649054;28;20048;-83
2022/07/01 23:38:42;;;;;;;1.90;1.10;;;;;;;;;;12631620;28;20054;-83
2022/07/01 23:44:45;;;;;;;1.85;0.82;;;;;;;;;;12630865;28;20377;-78
2022/07/01 23:50:47;;;;;;;;;;;;;;;;;;12630855;28;20035;-83
2022/07/01 23:56:49;;;;;;;2.28;0.93;;;;;;;;;;12647874;28;19916;-83
